Time;durP1;ratioP1;P1;durP2;ratioP2;P2;SDS_P1;SDS_P2;PMS_P1;PMS_P2;Temp;Humidity;BMP_temperature;BMP_pressure;BME280_temperature;BME280_humidity;BME280_pressure;Samples;Min_cycle;Max_cycle;Signal;HPM_P1;HPM_P2
2023/09/19 00:01:40;;;;;;;5.80;2.47;;;17.80;95.10;;;;;;5096101;28;20473;-58
2023/09/19 00:04:09;;;;;;;7.33;2.40;;;17.80;94.70;;;;;;5096204;28;20447;-58
2023/09/19 00:06:36;;;;;;;5.10;2.10;;;17.80;94.90;;;;;;5096120;28;20473;-58
2023/09/19 00:09:03;;;;;;;5.53;2.03;;;17.80;95.10;;;;;;5095993;28;20487;-58
2023/09/19 00:11:30;;;;;;;8.27;3.00;;;17.70;95.00;;;;;;5096044;28;20447;-58
2023/09/19 00:13:59;;;;;;;10.57;2.83;;;17.80;95.30;;;;;;5095481;28;20946;-58
2023/09/19 00:16:26;;;;;;;8.40;2.73;;;17.80;95.30;;;;;;5096059;28;20822;-58
2023/09/19 00:18:53;;;;;;;4.17;2.30;;;17.80;95.10;;;;;;5095941;28;20491;-58
2023/09/19 00:21:21;;;;;;;7.77;2.37;;;17.80;94.90;;;;;;5096114;28;20830;-58
2023/09/19 00:23:49;;;;;;;9.53;2.70;;;17.80;94.80;;;;;;5095935;28;20546;-58
2023/09/19 00:26:18;;;;;;;7.13;2.67;;;17.80;94.90;;;;;;5095831;28;20448;-58
2023/09/19 00:28:44;;;;;;;8.50;3.60;;;17.80;94.90;;;;;;5095820;28;20556;-58
2023/09/19 00:31:11;;;;;;;12.17;2.00;;;17.70;94.80;;;;;;5095662;28;20439;-57
2023/09/19 00:33:38;;;;;;;10.87;2.43;;;17.70;95.10;;;;;;5096052;28;20468;-58
2023/09/19 00:36:05;;;;;;;8.37;2.43;;;17.70;95.10;;;;;;5096049;28;20448;-58
2023/09/19 00:38:33;;;;;;;7.00;2.10;;;17.70;94.90;;;;;;5096269;28;20451;-58
2023/09/19 00:41:00;;;;;;;12.67;3.23;;;17.70;95.00;;;;;;5096151;28;20479;-58
2023/09/19 00:43:27;;;;;;;5.23;1.83;;;17.70;94.70;;;;;;5095767;28;20472;-58
2023/09/19 00:45:56;;;;;;;6.97;2.00;;;17.70;94.90;;;;;;5096321;28;20447;-58
2023/09/19 00:48:24;;;;;;;8.07;2.50;;;17.60;94.90;;;;;;5096028;28;20447;-58
2023/09/19 00:50:53;;;;;;;8.30;1.97;;;17.50;94.80;;;;;;5096300;28;20446;-58
2023/09/19 00:53:22;;;;;;;11.40;2.20;;;17.50;95.20;;;;;;5096397;28;20564;-58
2023/09/19 00:55:52;;;;;;;9.97;1.90;;;17.50;95.30;;;;;;5096068;28;20589;-58
2023/09/19 00:58:20;;;;;;;7.13;2.00;;;17.50;95.40;;;;;;5096064;28;20444;-58
2023/09/19 01:00:48;;;;;;;7.30;2.33;;;17.50;95.50;;;;;;5095978;28;20487;-58
2023/09/19 01:03:14;;;;;;;6.90;2.03;;;17.50;95.10;;;;;;5094871;28;20877;-58
2023/09/19 01:05:42;;;;;;;10.43;2.27;;;17.40;95.00;;;;;;5094843;28;20452;-58
2023/09/19 01:08:11;;;;;;;8.40;1.93;;;17.50;95.30;;;;;;5095057;28;20451;-58
2023/09/19 01:10:44;;;;;;;8.27;1.97;;;17.50;95.20;;;;;;5094785;28;20487;-58
2023/09/19 01:13:23;;;;;;;9.17;2.03;;;17.50;95.50;;;;;;5094407;28;20890;-57
2023/09/19 01:15:56;;;;;;;5.87;2.30;;;17.40;95.20;;;;;;5094471;28;20439;-58
2023/09/19 01:18:31;;;;;;;6.97;2.27;;;17.40;95.60;;;;;;5094536;28;20424;-58
2023/09/19 01:21:06;;;;;;;8.73;2.40;;;17.40;95.50;;;;;;5094199;28;20897;-58
2023/09/19 01:23:52;;;;;;;9.30;2.60;;;17.40;95.60;;;;;;5094166;28;20459;-58
2023/09/19 01:26:31;;;;;;;6.07;2.50;;;17.40;95.50;;;;;;5094125;28;20954;-58
2023/09/19 01:29:19;;;;;;;7.07;2.10;;;17.40;95.70;;;;;;5094351;28;20556;-58
2023/09/19 01:31:50;;;;;;;6.80;2.57;;;17.30;95.70;;;;;;5094224;28;20435;-58
2023/09/19 01:34:18;;;;;;;9.90;2.10;;;17.30;96.10;;;;;;5094467;28;20420;-58
2023/09/19 01:36:45;;;;;;;9.53;2.57;;;17.30;95.90;;;;;;5094248;28;20474;-58
2023/09/19 01:39:13;;;;;;;8.03;3.10;;;17.30;95.70;;;;;;5094032;28;20466;-58
2023/09/19 01:42:00;;;;;;;5.93;2.10;;;17.30;95.40;;;;;;5093719;28;20993;-58
2023/09/19 01:44:32;;;;;;;11.73;2.63;;;17.30;95.70;;;;;;5094046;28;20428;-57
2023/09/19 01:47:10;;;;;;;6.97;2.33;;;17.30;95.90;;;;;;5093573;28;20420;-58
2023/09/19 01:49:46;;;;;;;9.80;2.97;;;17.20;95.20;;;;;;5093813;28;20492;-58
2023/09/19 01:52:16;;;;;;;7.53;2.50;;;17.20;95.40;;;;;;5093930;28;20519;-58
2023/09/19 01:54:50;;;;;;;7.13;2.33;;;17.20;95.70;;;;;;5093816;28;20425;-58
2023/09/19 01:57:23;;;;;;;9.63;2.23;;;17.20;95.20;;;;;;5093937;28;20432;-58
2023/09/19 01:59:56;;;;;;;12.20;2.60;;;17.10;95.40;;;;;;5093664;28;20460;-58
2023/09/19 02:02:25;;;;;;;7.03;2.00;;;17.10;95.40;;;;;;5093756;28;20437;-57
2023/09/19 02:04:52;;;;;;;6.20;2.40;;;17.10;95.30;;;;;;5093757;28;20436;-58
2023/09/19 02:07:19;;;;;;;9.13;2.47;;;17.10;95.60;;;;;;5093816;28;20474;-58
2023/09/19 02:09:47;;;;;;;13.13;3.03;;;17.10;95.60;;;;;;5093491;28;20487;-58
2023/09/19 02:12:15;;;;;;;7.77;2.00;;;17.10;95.50;;;;;;5093760;28;20448;-58
2023/09/19 02:14:42;;;;;;;7.87;1.90;;;17.10;94.90;;;;;;5093078;28;20448;-57
2023/09/19 02:17:11;;;;;;;13.13;3.20;;;17.10;95.00;;;;;;5093638;28;20444;-58
2023/09/19 02:19:40;;;;;;;12.30;3.10;;;17.00;95.00;;;;;;5093688;28;20923;-58
2023/09/19 02:22:10;;;;;;;5.60;2.27;;;17.00;95.20;;;;;;5093665;28;20443;-58
2023/09/19 02:24:37;;;;;;;8.40;2.27;;;17.00;95.50;;;;;;5093301;28;20494;-58
2023/09/19 02:27:07;;;;;;;8.63;2.60;;;17.00;95.20;;;;;;5093651;28;20440;-59
2023/09/19 02:29:34;;;;;;;8.50;2.47;;;17.10;95.10;;;;;;5093675;28;20475;-58
2023/09/19 02:32:02;;;;;;;6.00;2.50;;;17.10;95.50;;;;;;5093663;28;20467;-58
2023/09/19 02:34:29;;;;;;;7.73;2.70;;;17.00;94.40;;;;;;5086669;28;20464;-57
2023/09/19 02:36:57;;;;;;;13.63;2.67;;;17.00;94.70;;;;;;5073129;28;20444;-58
2023/09/19 02:39:24;;;;;;;14.10;2.50;;;17.00;94.00;;;;;;5073467;28;20467;-58
2023/09/19 02:41:51;;;;;;;11.10;2.10;;;16.90;94.00;;;;;;5073044;28;20830;-58
2023/09/19 02:44:19;;;;;;;7.93;2.27;;;16.80;93.70;;;;;;5073042;28;20455;-58
2023/09/19 02:46:46;;;;;;;8.33;2.03;;;16.90;94.20;;;;;;5073171;28;20484;-58
2023/09/19 02:49:14;;;;;;;10.83;3.30;;;16.80;93.90;;;;;;5072754;28;20801;-57
2023/09/19 02:51:40;;;;;;;13.17;2.17;;;16.80;93.80;;;;;;5073264;28;20867;-58
2023/09/19 02:54:09;;;;;;;14.90;2.00;;;16.80;94.00;;;;;;5073106;28;20455;-57
2023/09/19 02:56:37;;;;;;;7.00;2.77;;;16.80;93.50;;;;;;5072595;28;20502;-57
2023/09/19 02:59:03;;;;;;;11.20;2.53;;;16.80;93.70;;;;;;5076229;28;20897;-57
2023/09/19 03:01:30;;;;;;;7.00;2.57;;;16.80;93.60;;;;;;5077647;28;20523;-57
2023/09/19 03:03:57;;;;;;;6.03;2.27;;;16.80;93.20;;;;;;5076948;28;20436;-57
2023/09/19 03:06:24;;;;;;;8.90;2.50;;;16.80;93.40;;;;;;5076415;28;20945;-56
2023/09/19 03:08:51;;;;;;;9.47;2.13;;;16.80;93.60;;;;;;5076686;28;20506;-57
2023/09/19 03:11:22;;;;;;;5.47;2.50;;;16.70;93.40;;;;;;5076616;28;20481;-57
2023/09/19 03:13:53;;;;;;;5.37;1.80;;;16.70;93.60;;;;;;5076529;28;20429;-57
2023/09/19 03:16:21;;;;;;;11.53;2.17;;;16.60;93.50;;;;;;5076378;28;20428;-57
2023/09/19 03:18:48;;;;;;;12.60;2.80;;;16.60;93.80;;;;;;5076653;28;20468;-57
2023/09/19 03:21:15;;;;;;;10.37;2.77;;;16.60;93.80;;;;;;5076163;28;20949;-57
2023/09/19 03:23:43;;;;;;;10.20;2.47;;;16.70;93.70;;;;;;5076232;28;20459;-57
2023/09/19 03:26:10;;;;;;;11.40;2.73;;;16.70;94.00;;;;;;5076474;28;20428;-57
2023/09/19 03:28:38;;;;;;;5.03;2.27;;;16.70;93.90;;;;;;5076271;28;20454;-57
2023/09/19 03:31:06;;;;;;;7.17;2.60;;;16.70;93.70;;;;;;5076321;28;20476;-56
2023/09/19 03:33:33;;;;;;;7.57;2.50;;;16.70;93.90;;;;;;5076476;28;20448;-57
2023/09/19 03:36:01;;;;;;;6.30;2.40;;;16.70;93.90;;;;;;5076158;28;20797;-57
2023/09/19 03:38:28;;;;;;;11.83;2.70;;;16.70;93.80;;;;;;5076330;28;20527;-57
2023/09/19 03:40:55;;;;;;;7.30;2.20;;;16.70;93.90;;;;;;5076150;28;20445;-57
2023/09/19 03:43:22;;;;;;;8.60;2.80;;;16.70;94.00;;;;;;5076118;28;20798;-56
2023/09/19 03:45:50;;;;;;;7.80;2.17;;;16.70;94.20;;;;;;5075931;28;20444;-56
2023/09/19 03:48:17;;;;;;;5.57;1.87;;;16.70;94.00;;;;;;5075714;28;20837;-57
2023/09/19 03:50:44;;;;;;;10.73;2.53;;;16.70;94.10;;;;;;5075956;28;20484;-57
2023/09/19 03:53:11;;;;;;;11.33;2.33;;;16.70;94.10;;;;;;5075901;28;20870;-57
2023/09/19 03:55:38;;;;;;;7.57;2.70;;;16.70;94.10;;;;;;5076014;28;20459;-57
2023/09/19 03:58:05;;;;;;;6.43;2.80;;;16.70;94.20;;;;;;5075941;28;20487;-57
2023/09/19 04:00:32;;;;;;;12.67;3.23;;;16.80;93.80;;;;;;5075950;28;20460;-57
2023/09/19 04:03:02;;;;;;;10.93;2.77;;;16.80;93.80;;;;;;5075944;28;20446;-57
2023/09/19 04:05:28;;;;;;;9.80;2.57;;;16.80;94.00;;;;;;5076364;28;20429;-57
2023/09/19 04:07:55;;;;;;;9.00;2.40;;;16.80;93.30;;;;;;5075395;28;20445;-57
2023/09/19 04:10:22;;;;;;;6.90;2.23;;;16.80;93.30;;;;;;5075377;28;20491;-57
2023/09/19 04:12:53;;;;;;;13.30;2.10;;;16.80;93.20;;;;;;5075518;28;20441;-56
2023/09/19 04:15:22;;;;;;;8.77;2.90;;;16.70;93.60;;;;;;5075641;28;20480;-56
2023/09/19 04:17:48;;;;;;;8.40;2.97;;;16.80;93.70;;;;;;5075345;28;20989;-57
2023/09/19 04:20:18;;;;;;;10.07;2.47;;;16.70;93.80;;;;;;5075538;28;20468;-57
2023/09/19 04:22:45;;;;;;;8.77;2.60;;;16.70;93.60;;;;;;5075644;28;20487;-57
2023/09/19 04:25:11;;;;;;;11.00;2.67;;;16.80;93.90;;;;;;5075125;28;20514;-57
2023/09/19 04:27:39;;;;;;;15.50;3.53;;;16.80;93.90;;;;;;5075583;28;20829;-57
2023/09/19 04:30:10;;;;;;;11.63;2.40;;;16.70;93.60;;;;;;5075209;28;20484;-57
2023/09/19 04:32:38;;;;;;;10.90;2.70;;;16.80;93.90;;;;;;5075119;28;20931;-57
2023/09/19 04:35:06;;;;;;;8.87;2.10;;;16.70;94.00;;;;;;5075263;28;20510;-57
2023/09/19 04:37:35;;;;;;;9.43;2.57;;;16.70;93.90;;;;;;5075278;28;20448;-57
2023/09/19 04:40:04;;;;;;;10.03;2.23;;;16.60;93.60;;;;;;5074938;28;20488;-57
2023/09/19 04:42:31;;;;;;;10.67;2.50;;;16.60;93.70;;;;;;5075200;28;20448;-57
2023/09/19 04:44:59;;;;;;;9.57;2.40;;;16.60;93.70;;;;;;5075046;28;20535;-57
2023/09/19 04:47:26;;;;;;;7.33;2.17;;;16.60;93.70;;;;;;5075015;28;20590;-57
2023/09/19 04:49:53;;;;;;;7.30;3.03;;;16.60;93.80;;;;;;5074742;28;20468;-57
2023/09/19 04:52:20;;;;;;;8.83;2.60;;;16.60;93.70;;;;;;5074818;28;20445;-56
2023/09/19 04:54:48;;;;;;;11.00;2.50;;;16.50;93.70;;;;;;5074794;28;20445;-57
2023/09/19 04:57:15;;;;;;;13.27;3.13;;;16.50;93.20;;;;;;5074666;28;20456;-57
2023/09/19 04:59:42;;;;;;;9.73;2.40;;;16.50;93.30;;;;;;5074167;28;20475;-56
2023/09/19 05:02:09;;;;;;;10.90;2.67;;;16.40;93.40;;;;;;5074623;28;20448;-57
2023/09/19 05:04:36;;;;;;;9.60;2.43;;;16.50;93.50;;;;;;5074505;28;20441;-57
2023/09/19 05:07:03;;;;;;;5.87;2.13;;;16.50;93.40;;;;;;5074364;28;20528;-56
2023/09/19 05:09:30;;;;;;;13.00;2.57;;;16.50;93.10;;;;;;5074471;28;20475;-57
2023/09/19 05:11:58;;;;;;;11.07;2.63;;;16.50;92.90;;;;;;5074367;28;20484;-58
2023/09/19 05:14:25;;;;;;;11.37;2.93;;;16.50;92.80;;;;;;5074320;28;20452;-57
2023/09/19 05:16:51;;;;;;;15.43;2.80;;;16.50;92.30;;;;;;5074253;28;20445;-57
2023/09/19 05:19:18;;;;;;;8.20;2.00;;;16.50;92.90;;;;;;5074152;28;20464;-57
2023/09/19 05:21:46;;;;;;;13.93;3.00;;;16.50;92.70;;;;;;5073421;28;20441;-57
2023/09/19 05:24:14;;;;;;;11.93;2.70;;;16.50;92.50;;;;;;5073756;28;20463;-57
2023/09/19 05:26:41;;;;;;;7.70;2.67;;;16.50;92.50;;;;;;5074020;28;20448;-57
2023/09/19 05:29:09;;;;;;;13.00;2.57;;;16.50;92.50;;;;;;5074015;28;20460;-57
2023/09/19 05:31:40;;;;;;;8.73;2.33;;;16.50;92.40;;;;;;5073853;28;20480;-57
2023/09/19 05:34:07;;;;;;;10.23;2.27;;;16.50;92.60;;;;;;5076503;28;20459;-57
2023/09/19 05:36:34;;;;;;;8.03;2.63;;;16.50;92.80;;;;;;5094134;28;20444;-57
2023/09/19 05:39:00;;;;;;;11.00;2.33;;;16.40;92.80;;;;;;5094075;28;20459;-57
2023/09/19 05:41:27;;;;;;;10.03;2.47;;;16.40;92.60;;;;;;5094046;28;20446;-58
2023/09/19 05:43:54;;;;;;;12.83;2.83;;;16.30;92.40;;;;;;5093759;28;20447;-57
2023/09/19 05:46:22;;;;;;;8.57;2.53;;;16.40;92.90;;;;;;5093982;28;20439;-58
2023/09/19 05:48:49;;;;;;;19.30;2.90;;;16.40;93.00;;;;;;5093843;28;20470;-57
2023/09/19 05:51:18;;;;;;;9.47;2.23;;;16.40;93.10;;;;;;5093629;28;21073;-58
2023/09/19 05:53:48;;;;;;;11.60;2.10;;;16.40;93.20;;;;;;5093954;28;20480;-58
2023/09/19 05:56:14;;;;;;;8.20;2.80;;;16.40;93.30;;;;;;5093616;28;20455;-57
2023/09/19 05:58:44;;;;;;;10.93;2.00;;;16.30;93.10;;;;;;5092596;28;20459;-57
2023/09/19 06:01:11;;;;;;;14.07;2.80;;;16.30;93.60;;;;;;5091029;28;20455;-57
2023/09/19 06:03:39;;;;;;;9.30;2.10;;;16.30;93.60;;;;;;5092385;28;20458;-57
2023/09/19 06:06:06;;;;;;;8.43;2.43;;;16.40;93.70;;;;;;5072828;28;20449;-57
2023/09/19 06:08:33;;;;;;;16.13;3.97;;;16.40;93.90;;;;;;5072972;28;20460;-58
2023/09/19 06:11:00;;;;;;;8.40;2.40;;;16.40;94.00;;;;;;5072937;28;20484;-57
2023/09/19 06:13:29;;;;;;;9.67;2.30;;;16.40;94.00;;;;;;5073362;28;20483;-57
2023/09/19 06:15:56;;;;;;;12.03;2.50;;;16.50;93.70;;;;;;5073236;28;20848;-57
2023/09/19 06:18:26;;;;;;;11.77;3.10;;;16.50;93.90;;;;;;5073416;28;20449;-58
2023/09/19 06:20:55;;;;;;;11.33;2.37;;;16.50;93.60;;;;;;5073318;28;20445;-58
2023/09/19 06:23:22;;;;;;;10.47;2.50;;;16.50;93.70;;;;;;5073179;28;20502;-58
2023/09/19 06:25:49;;;;;;;15.83;3.20;;;16.60;94.00;;;;;;5072557;28;20810;-57
2023/09/19 06:28:19;;;;;;;12.50;2.60;;;16.60;93.90;;;;;;5073300;28;20445;-58
2023/09/19 06:30:47;;;;;;;9.83;2.27;;;16.60;93.90;;;;;;5073181;28;20477;-58
2023/09/19 06:33:14;;;;;;;7.80;2.23;;;16.60;93.80;;;;;;5079445;28;20444;-57
2023/09/19 06:35:41;;;;;;;12.77;3.17;;;16.60;93.80;;;;;;5079936;28;20451;-58
2023/09/19 06:38:12;;;;;;;14.40;3.53;;;16.60;94.00;;;;;;5079861;28;20471;-58
2023/09/19 06:40:39;;;;;;;6.57;2.20;;;16.70;93.90;;;;;;5079708;28;20919;-58
2023/09/19 06:43:06;;;;;;;4.60;2.33;;;16.80;93.80;;;;;;5079787;28;20440;-57
2023/09/19 06:45:33;;;;;;;10.63;2.40;;;16.80;93.80;;;;;;5080533;28;20440;-58
2023/09/19 06:48:00;;;;;;;10.10;3.43;;;16.90;93.60;;;;;;5079487;28;20950;-58
2023/09/19 06:50:27;;;;;;;7.00;2.10;;;16.90;93.50;;;;;;5079651;28;20464;-58
2023/09/19 06:52:57;;;;;;;7.77;2.30;;;17.00;93.20;;;;;;5079658;28;20470;-57
2023/09/19 06:55:27;;;;;;;12.70;2.83;;;17.00;93.40;;;;;;5079750;28;20444;-58
2023/09/19 06:57:54;;;;;;;13.80;3.50;;;17.10;93.30;;;;;;5079708;28;20494;-58
2023/09/19 07:00:23;;;;;;;13.60;2.73;;;17.10;93.40;;;;;;5079641;28;20488;-58
2023/09/19 07:02:57;;;;;;;7.00;2.07;;;17.10;93.40;;;;;;5079466;28;21033;-58
2023/09/19 07:05:23;;;;;;;7.87;2.67;;;17.20;93.40;;;;;;5079626;28;20796;-58
2023/09/19 07:07:50;;;;;;;6.10;2.70;;;17.30;93.20;;;;;;5079545;28;20444;-57
2023/09/19 07:10:18;;;;;;;9.10;3.23;;;17.30;93.00;;;;;;5079603;28;20832;-58
2023/09/19 07:12:46;;;;;;;8.93;2.40;;;17.30;92.90;;;;;;5079464;28;20484;-58
2023/09/19 07:15:13;;;;;;;7.37;2.47;;;17.30;92.80;;;;;;5079235;28;20448;-58
2023/09/19 07:17:40;;;;;;;7.27;2.20;;;17.30;92.80;;;;;;5079202;28;20968;-58
2023/09/19 07:20:08;;;;;;;11.23;2.30;;;17.40;93.00;;;;;;5079186;28;20834;-58
2023/09/19 07:22:34;;;;;;;5.03;2.67;;;17.50;93.00;;;;;;5079383;28;20444;-57
2023/09/19 07:25:01;;;;;;;8.33;1.97;;;17.60;92.80;;;;;;5079233;28;20495;-58
2023/09/19 07:27:28;;;;;;;8.80;2.00;;;17.60;92.20;;;;;;5079534;28;20440;-57
2023/09/19 07:29:56;;;;;;;6.90;2.17;;;17.60;92.50;;;;;;5079189;28;21024;-57
2023/09/19 07:32:24;;;;;;;10.33;2.50;;;17.70;92.20;;;;;;5079176;28;21001;-58
2023/09/19 07:34:50;;;;;;;6.90;2.50;;;17.70;92.20;;;;;;5079442;28;20444;-58
2023/09/19 07:37:16;;;;;;;11.67;2.50;;;17.70;92.10;;;;;;5079701;28;20451;-58
2023/09/19 07:39:44;;;;;;;11.90;2.87;;;17.80;92.20;;;;;;5079336;28;20468;-57
2023/09/19 07:42:17;;;;;;;7.33;2.80;;;17.80;92.10;;;;;;5079574;28;20200;-58
2023/09/19 07:44:46;;;;;;;10.23;2.33;;;18.00;92.00;;;;;;5075419;28;20469;-57
2023/09/19 07:47:14;;;;;;;7.60;3.00;;;18.00;91.40;;;;;;5076276;28;20445;-58
2023/09/19 07:49:42;;;;;;;13.47;2.77;;;18.10;91.20;;;;;;5076102;28;20511;-58
2023/09/19 07:52:09;;;;;;;8.73;2.83;;;18.10;91.30;;;;;;5076120;28;20480;-58
2023/09/19 07:54:36;;;;;;;8.53;2.30;;;18.20;91.30;;;;;;5075637;28;20926;-57
2023/09/19 07:57:02;;;;;;;7.33;2.20;;;18.30;90.60;;;;;;5076000;28;20441;-58
2023/09/19 07:59:29;;;;;;;11.20;2.30;;;18.30;90.90;;;;;;5075616;28;20469;-58
2023/09/19 08:01:55;;;;;;;6.50;2.40;;;18.30;91.00;;;;;;5075582;28;20946;-58
2023/09/19 08:04:25;;;;;;;13.63;3.20;;;18.40;90.90;;;;;;5075548;28;20942;-58
2023/09/19 08:06:52;;;;;;;9.07;2.40;;;18.50;90.50;;;;;;5075914;28;20495;-58
2023/09/19 08:09:20;;;;;;;8.77;2.83;;;18.60;90.40;;;;;;5075968;28;20494;-58
2023/09/19 08:11:47;;;;;;;10.23;3.20;;;18.60;89.20;;;;;;5075911;28;20504;-57
2023/09/19 08:14:14;;;;;;;10.63;2.83;;;18.60;89.80;;;;;;5075847;28;20441;-57
2023/09/19 08:16:42;;;;;;;8.13;2.47;;;18.70;90.40;;;;;;5075848;28;20495;-58
2023/09/19 08:19:11;;;;;;;7.73;2.40;;;18.70;90.10;;;;;;5075576;28;20464;-58
2023/09/19 08:21:39;;;;;;;8.57;2.17;;;18.90;90.00;;;;;;5075576;28;20441;-58
2023/09/19 08:24:06;;;;;;;7.03;2.30;;;19.00;90.10;;;;;;5075210;28;20455;-57
2023/09/19 08:26:33;;;;;;;10.33;2.23;;;19.10;89.10;;;;;;5075474;28;20445;-58
2023/09/19 08:29:04;;;;;;;9.20;2.30;;;19.20;89.40;;;;;;5074951;28;20839;-58
2023/09/19 08:31:31;;;;;;;12.70;2.23;;;19.30;86.90;;;;;;5075216;28;20831;-58
2023/09/19 08:33:58;;;;;;;7.13;2.13;;;19.30;87.20;;;;;;5074972;28;20456;-57
2023/09/19 08:36:24;;;;;;;8.23;2.63;;;19.30;86.70;;;;;;5075124;28;20441;-58
2023/09/19 08:38:52;;;;;;;11.60;2.97;;;19.30;86.90;;;;;;5074998;28;20464;-58
2023/09/19 08:41:19;;;;;;;8.90;2.57;;;19.40;87.30;;;;;;5074990;28;20445;-57
2023/09/19 08:43:47;;;;;;;10.63;2.80;;;19.50;87.70;;;;;;5074611;28;20487;-57
2023/09/19 08:46:16;;;;;;;9.83;3.07;;;19.40;83.50;;;;;;5074997;28;20452;-58
2023/09/19 08:48:49;;;;;;;7.10;2.20;;;19.40;85.00;;;;;;5074631;28;20957;-58
2023/09/19 08:51:22;;;;;;;7.90;2.00;;;19.40;85.60;;;;;;5074832;28;20483;-58
2023/09/19 08:53:59;;;;;;;8.73;2.60;;;19.50;86.60;;;;;;5075187;28;20429;-58
2023/09/19 08:56:28;;;;;;;10.57;2.47;;;19.60;85.80;;;;;;5073702;28;20421;-58
2023/09/19 08:59:01;;;;;;;8.87;2.60;;;19.70;84.30;;;;;;5074665;28;20539;-58
2023/09/19 09:01:29;;;;;;;8.30;2.40;;;19.90;84.80;;;;;;5074709;28;20429;-58
2023/09/19 09:03:57;;;;;;;8.67;2.33;;;20.00;82.50;;;;;;5074624;28;20444;-58
2023/09/19 09:06:25;;;;;;;11.00;2.00;;;20.00;81.20;;;;;;5074621;28;20440;-58
2023/09/19 09:08:54;;;;;;;9.87;4.57;;;19.90;81.90;;;;;;5074600;28;20465;-58
2023/09/19 09:11:23;;;;;;;8.80;2.60;;;19.90;80.40;;;;;;5074401;28;20455;-57
2023/09/19 09:13:50;;;;;;;10.30;2.17;;;19.90;80.70;;;;;;5074371;28;20511;-57
2023/09/19 09:16:18;;;;;;;15.23;3.17;;;19.80;80.80;;;;;;5074187;28;20942;-58
2023/09/19 09:18:45;;;;;;;10.37;3.23;;;20.00;82.30;;;;;;5074313;28;20503;-57
2023/09/19 09:21:15;;;;;;;11.50;2.20;;;20.00;82.10;;;;;;5073906;28;20826;-58
2023/09/19 09:23:42;;;;;;;7.13;2.80;;;20.10;80.70;;;;;;5074067;28;20535;-58
2023/09/19 09:26:10;;;;;;;8.40;2.47;;;20.20;80.40;;;;;;5074276;28;20843;-58
2023/09/19 09:28:45;;;;;;;8.00;2.10;;;20.20;79.40;;;;;;5074003;28;20440;-58
2023/09/19 09:31:24;;;;;;;6.20;2.25;;;20.30;80.00;;;;;;5073701;28;20809;-57
2023/09/19 09:33:54;;;;;;;8.40;2.70;;;20.40;77.90;;;;;;5073814;28;21001;-58
2023/09/19 09:36:36;;;;;;;12.10;2.90;;;20.30;77.40;;;;;;5073724;28;20456;-58
2023/09/19 09:39:15;;;;;;;3.53;1.77;;;20.40;76.60;;;;;;5073955;28;20496;-58
2023/09/19 09:41:43;;;;;;;7.87;1.90;;;20.50;77.60;;;;;;5073996;28;20528;-57
2023/09/19 09:44:15;;;;;;;11.20;3.20;;;20.50;76.30;;;;;;5074023;28;20436;-58
2023/09/19 09:49:36;;;;;;;9.30;2.20;;;20.80;77.20;;;;;;5037596;28;20460;-58
2023/09/19 09:52:07;;;;;;;9.47;1.93;;;20.80;75.00;;;;;;5073646;28;20538;-58
2023/09/19 09:54:36;;;;;;;8.30;2.00;;;20.80;74.20;;;;;;5073438;28;20431;-58
2023/09/19 09:57:14;;;;;;;5.23;1.70;;;20.90;77.30;;;;;;5073646;28;20445;-58
2023/09/19 09:59:53;;;;;;;12.60;2.70;;;21.00;74.70;;;;;;5074362;28;20491;-58
2023/09/19 10:02:25;;;;;;;6.37;2.10;;;21.10;74.40;;;;;;5073267;28;20903;-58
2023/09/19 10:05:08;;;;;;;7.10;2.97;;;21.30;73.20;;;;;;5073615;28;20891;-58
2023/09/19 10:07:41;;;;;;;9.87;2.23;;;21.30;72.40;;;;;;5073146;28;20435;-58
2023/09/19 10:10:15;;;;;;;8.37;2.30;;;21.30;71.90;;;;;;5073348;28;20895;-57
2023/09/19 10:12:48;;;;;;;8.27;1.80;;;21.40;72.80;;;;;;5073411;28;20468;-58
2023/09/19 10:15:17;;;;;;;7.47;2.03;;;21.60;72.50;;;;;;5073416;28;20427;-58
2023/09/19 10:17:45;;;;;;;4.30;1.97;;;21.70;71.70;;;;;;5073278;28;20543;-58
2023/09/19 10:20:23;;;;;;;7.83;2.37;;;21.80;70.50;;;;;;5073303;28;20475;-58
2023/09/19 10:22:57;;;;;;;9.70;2.77;;;21.90;70.10;;;;;;5073390;28;20508;-57
2023/09/19 10:25:28;;;;;;;7.30;2.30;;;21.80;70.00;;;;;;5072902;28;20464;-58
2023/09/19 10:27:58;;;;;;;10.40;2.87;;;21.80;69.60;;;;;;5073387;28;20429;-58
2023/09/19 10:30:28;;;;;;;6.37;2.30;;;21.90;69.00;;;;;;5073254;28;20522;-58
2023/09/19 10:33:00;;;;;;;6.27;1.93;;;22.10;67.60;;;;;;5073071;28;20491;-58
2023/09/19 10:35:28;;;;;;;6.87;2.03;;;22.20;67.10;;;;;;5073286;28;20425;-58
2023/09/19 10:37:57;;;;;;;8.63;2.30;;;22.50;66.40;;;;;;5073223;28;20464;-58
2023/09/19 10:40:30;;;;;;;5.57;2.07;;;22.80;66.60;;;;;;5073128;28;20804;-58
2023/09/19 10:43:04;;;;;;;9.47;2.57;;;23.00;66.00;;;;;;5073040;28;20421;-57
2023/09/19 10:45:32;;;;;;;7.87;2.10;;;23.10;63.90;;;;;;5073366;28;20494;-58
2023/09/19 10:47:59;;;;;;;5.13;1.60;;;23.20;61.50;;;;;;5073210;28;20472;-58
2023/09/19 10:50:28;;;;;;;6.60;2.27;;;23.40;60.90;;;;;;5073022;28;20468;-58
2023/09/19 10:53:00;;;;;;;7.67;2.23;;;23.70;62.10;;;;;;5072716;28;21067;-58
2023/09/19 10:55:30;;;;;;;9.13;2.80;;;23.80;60.00;;;;;;5073063;28;20436;-58
2023/09/19 10:57:57;;;;;;;7.80;2.20;;;23.70;58.20;;;;;;5073108;28;20505;-58
2023/09/19 11:00:27;;;;;;;6.13;2.50;;;23.60;59.30;;;;;;5072958;28;20468;-58
2023/09/19 11:03:21;;;;;;;9.87;2.30;;;23.80;58.90;;;;;;5073005;28;20814;-58
2023/09/19 11:06:09;;;;;;;6.87;2.30;;;24.10;57.60;;;;;;5072961;28;20453;-58
2023/09/19 11:09:10;;;;;;;4.80;1.93;;;24.60;56.00;;;;;;5072925;28;20527;-58
2023/09/19 11:11:46;;;;;;;7.60;2.70;;;24.80;54.40;;;;;;5072889;28;20441;-58
2023/09/19 11:14:31;;;;;;;10.50;2.70;;;25.10;54.50;;;;;;5073678;28;20436;-58
2023/09/19 11:17:41;;;;;;;7.50;2.43;;;25.40;52.90;;;;;;5070867;28;20459;-58
2023/09/19 11:23:22;;;;;;;2.93;2.10;;;26.10;52.30;;;;;;5076249;28;20460;-58
2023/09/19 11:25:49;;;;;;;5.40;2.23;;;26.00;49.00;;;;;;5077354;28;20429;-58
2023/09/19 11:28:31;;;;;;;8.80;2.37;;;26.00;48.70;;;;;;5076439;28;20470;-58
2023/09/19 11:30:59;;;;;;;5.50;1.87;;;25.90;47.60;;;;;;5076253;28;20505;-58
2023/09/19 11:33:29;;;;;;;5.37;2.03;;;26.00;47.90;;;;;;5076459;28;20492;-58
2023/09/19 11:36:04;;;;;;;5.60;1.90;;;26.40;47.00;;;;;;5076130;28;20464;-57
2023/09/19 11:39:01;;;;;;;4.13;2.03;;;26.50;46.90;;;;;;5076245;28;20439;-58
2023/09/19 11:41:40;;;;;;;3.90;2.20;;;27.00;46.00;;;;;;5076130;28;20445;-58
2023/09/19 11:44:34;;;;;;;8.57;1.90;;;27.80;45.00;;;;;;5076296;28;20436;-58
2023/09/19 11:47:03;;;;;;;6.30;2.30;;;28.40;41.80;;;;;;5076268;28;20472;-58
2023/09/19 11:49:31;;;;;;;11.53;2.80;;;28.90;40.30;;;;;;5075636;28;21008;-58
2023/09/19 11:52:01;;;;;;;6.27;2.87;;;29.30;40.00;;;;;;5075961;28;20451;-56
2023/09/19 11:54:31;;;;;;;5.50;2.20;;;29.80;40.50;;;;;;5075730;28;20454;-57
2023/09/19 11:56:58;;;;;;;5.00;2.20;;;30.40;38.30;;;;;;5076722;28;20444;-57
2023/09/19 11:59:27;;;;;;;7.37;2.30;;;31.00;36.20;;;;;;5075767;28;21004;-57
2023/09/19 12:01:57;;;;;;;8.40;2.13;;;31.30;34.40;;;;;;5075560;28;20976;-57
2023/09/19 12:04:37;;;;;;;12.10;2.57;;;31.90;35.10;;;;;;5075871;28;20451;-57
2023/09/19 12:07:10;;;;;;;8.00;2.20;;;32.10;32.50;;;;;;5075855;28;20792;-57
2023/09/19 12:09:39;;;;;;;6.80;2.03;;;31.90;32.30;;;;;;5075387;28;20837;-56
2023/09/19 12:12:06;;;;;;;6.20;2.50;;;32.00;32.00;;;;;;5075626;28;20474;-57
2023/09/19 12:14:33;;;;;;;5.40;2.27;;;32.10;31.70;;;;;;5075735;28;20444;-56
2023/09/19 12:17:01;;;;;;;6.80;1.90;;;32.30;31.70;;;;;;5075628;28;20448;-57
2023/09/19 12:19:29;;;;;;;6.87;2.70;;;32.10;30.90;;;;;;5075349;28;20475;-57
2023/09/19 12:21:57;;;;;;;6.90;2.23;;;32.30;32.70;;;;;;5075099;28;20452;-57
2023/09/19 12:24:29;;;;;;;4.90;2.27;;;32.60;31.00;;;;;;5075144;28;20448;-57
2023/09/19 12:27:04;;;;;;;3.43;1.67;;;32.80;30.80;;;;;;5075423;28;20421;-57
2023/09/19 12:29:31;;;;;;;6.67;2.10;;;33.20;30.40;;;;;;5074887;28;20467;-57
2023/09/19 12:31:59;;;;;;;4.70;1.70;;;32.80;29.50;;;;;;5075255;28;20440;-56
2023/09/19 12:34:28;;;;;;;6.57;2.03;;;32.60;30.70;;;;;;5075068;28;20574;-57
2023/09/19 12:37:12;;;;;;;6.50;2.07;;;33.10;30.20;;;;;;5075140;28;20452;-57
2023/09/19 12:39:44;;;;;;;9.43;1.97;;;33.20;29.50;;;;;;5074971;28;20470;-56
2023/09/19 12:42:14;;;;;;;5.60;1.90;;;33.70;29.60;;;;;;5075048;28;20420;-57
2023/09/19 12:44:43;;;;;;;13.03;2.50;;;33.90;28.70;;;;;;5074941;28;20482;-56
2023/09/19 12:47:11;;;;;;;3.10;1.60;;;33.90;29.20;;;;;;5074917;28;20877;-57
2023/09/19 12:50:18;;;;;;;6.53;2.23;;;33.80;29.00;;;;;;5074562;28;20460;-56
2023/09/19 12:52:47;;;;;;;4.67;1.67;;;33.70;28.70;;;;;;5074748;28;20517;-56
2023/09/19 12:55:26;;;;;;;5.90;2.03;;;33.80;28.20;;;;;;5075606;28;20452;-57
2023/09/19 12:58:10;;;;;;;8.53;1.97;;;34.00;29.00;;;;;;5075051;28;20444;-57
2023/09/19 13:00:38;;;;;;;4.67;1.60;;;34.00;27.50;;;;;;5074479;28;20463;-56
2023/09/19 13:03:18;;;;;;;6.70;1.90;;;33.50;28.60;;;;;;5074563;28;20447;-57